Latest Weather Observations for Mount Stuart (Defence)

IDQ60801

Issued at 7:42 pm EST Thursday 16 August 2018 (issued every 10 minutes, with the page automatically refreshed every 10 minutes)

About weather observations | Map of weather stations | Latest weather observations for QLD | Other Formats
Station Details ID: 032195 Name: MOUNT STUART (DEFENCE) Lat: -19.41 Lon: 146.76 Height: 176.36 m
Data from the previous 72 hours. | See also: Recent months at Mount Stuart (Defence)
Date/Time
EST
Temp
°C
App
Temp
°C
Dew
Point
°C
Rel
Hum
%
Delta-T
°C
Wind Press
QNH
hPa
Press
MSL
hPa
Rain since
9am
mm
Dir  Spd
km/h
Gust
km/h
Spd
kts
Gust
kts
16/07:30pm 20.2 20.4 14.8 71 3.2 NNE 7 11 4 6 - - 0.0
16/07:00pm 20.1 19.6 14.9 72 3.1 NE 11 17 6 9 - - 0.0
16/06:30pm 20.4 20.1 14.3 68 3.6 NE 9 13 5 7 - - 0.0
16/06:00pm 21.0 21.1 14.4 66 3.9 NNE 7 13 4 7 - - 0.0
16/05:30pm 21.6 21.6 14.3 63 4.3 NE 7 11 4 6 - - 0.0
16/05:00pm 22.4 20.5 14.3 60 4.8 NE 17 26 9 14 - - 0.0
16/04:30pm 23.5 21.8 13.7 54 5.8 NE 15 22 8 12 - - 0.0
16/04:00pm 24.6 22.6 13.8 51 6.4 NE 17 24 9 13 - - 0.0
16/03:30pm 25.2 23.9 13.7 49 6.8 NE 13 20 7 11 - - 0.0
16/03:00pm 25.1 24.2 13.6 49 6.8 NE 11 20 6 11 - - 0.0
16/02:30pm 25.5 24.9 14.6 51 6.6 NE 11 19 6 10 - - 0.0
16/02:00pm 24.8 23.0 13.4 49 6.7 E 15 22 8 12 - - 0.0
16/01:30pm 27.8 27.7 13.3 40 8.6 NE 6 9 3 5 - - 0.0
16/01:00pm 27.5 26.7 11.1 36 9.4 SSW 6 7 3 4 - - 0.0
16/12:30pm 26.0 24.9 10.6 38 8.7 SSW 7 13 4 7 - - 0.0
16/12:00pm 25.4 24.4 10.4 39 8.4 SE 6 11 3 6 - - 0.0
16/11:30am 24.9 24.0 10.8 41 7.9 SSW 6 9 3 5 - - 0.0
16/11:00am 22.8 22.7 13.3 55 5.5 S 6 11 3 6 - - 0.0
16/10:30am 22.6 23.2 15.2 63 4.4 S 6 9 3 5 - - 0.0
16/10:00am 21.2 21.8 15.3 69 3.5 S 6 11 3 6 - - 0.0
16/09:30am 20.1 20.8 15.7 76 2.6 SSE 6 9 3 5 - - 0.0
16/09:00am 18.7 19.3 15.2 80 2.1 SSE 6 9 3 5 - - 0.0
16/08:30am 17.9 18.5 15.3 85 1.5 SSE 6 9 3 5 - - 0.0
16/08:00am 17.5 18.5 16.4 93 0.7 SE 6 9 3 5 - - 0.0
16/07:30am 16.5 17.9 16.3 99 0.1 SE 4 9 2 5 - - 0.0
16/07:00am 16.1 16.8 16.1 100 0.0 SE 7 9 4 5 - - 0.0
16/06:30am 15.6 15.7 15.4 99 0.1 SSE 9 13 5 7 - - 0.0
16/06:00am 15.5 15.9 15.3 99 0.1 ESE 7 9 4 5 - - 0.0
16/05:30am 15.9 15.7 15.7 99 0.1 SE 11 15 6 8 - - 0.0
16/05:00am 15.9 15.3 15.6 98 0.2 ENE 13 13 7 7 - - 0.0
16/04:30am 16.3 18.0 16.1 99 0.1 E 2 6 1 3 - - 0.0
16/04:00am 16.4 18.1 16.2 99 0.1 ESE 2 6 1 3 - - 0.0
16/03:30am 16.4 17.2 15.8 96 0.4 SE 6 7 3 4 - - 0.0
16/03:00am 16.7 17.8 15.6 93 0.6 SE 4 4 2 2 - - 0.0
16/02:30am 16.2 17.0 14.9 92 0.8 ENE 4 7 2 4 - - 0.0
16/02:00am 17.1 17.1 15.3 89 1.1 SSE 9 13 5 7 - - 0.0
16/01:30am 17.6 18.6 16.3 92 0.8 S 6 13 3 7 - - 0.0
16/01:00am 18.3 18.0 16.5 89 1.1 ENE 13 17 7 9 - - 0.0
16/12:30am 18.4 18.2 16.6 89 1.1 ENE 13 19 7 10 - - 0.0
16/12:00am 18.6 19.6 16.8 89 1.1 ENE 7 13 4 7 - - 0.0
 
Date/Time
EST
Temp
°C
App
Temp
°C
Dew
Point
°C
Rel
Hum
%
Delta-T
°C
Wind Press
QNH
hPa
Press
MSL
hPa
Rain since
9am
mm
Dir  Spd
km/h
Gust
km/h
Spd
kts
Gust
kts
15/11:30pm 18.8 19.7 16.6 87 1.3 ENE 7 9 4 5 - - 0.0
15/11:00pm 19.1 19.7 16.7 86 1.5 NE 9 13 5 7 - - 0.0
15/10:30pm 19.1 20.0 16.5 85 1.6 ENE 7 13 4 7 - - 0.0
15/10:00pm 19.2 20.0 16.4 84 1.7 ENE 7 9 4 5 - - 0.0
15/09:30pm 19.4 19.8 16.2 82 1.9 NE 9 13 5 7 - - 0.0
15/09:00pm 19.6 20.9 16.1 80 2.1 NE 4 11 2 6 - - 0.0
15/08:30pm 19.7 20.9 16.0 79 2.2 NE 4 11 2 6 - - 0.0
15/08:00pm 19.8 19.5 15.4 76 2.6 NNE 11 24 6 13 - - 0.0
15/07:30pm 20.0 19.3 14.4 70 3.3 NNE 11 17 6 9 - - 0.0
15/07:00pm 20.4 19.7 13.1 63 4.2 NNE 9 15 5 8 - - 0.0
15/06:30pm 20.4 18.6 13.4 64 4.0 NE 15 19 8 10 - - 0.0
15/06:00pm 21.1 18.4 12.8 59 4.8 NE 19 26 10 14 - - 0.0
15/05:30pm 21.8 18.8 12.4 55 5.4 NE 20 30 11 16 - - 0.0
15/05:00pm 22.8 19.7 12.1 51 6.1 NE 20 28 11 15 - - 0.0
15/04:30pm 23.3 20.3 12.0 49 6.4 ENE 19 28 10 15 - - 0.0
15/04:00pm 24.2 21.8 12.5 48 6.8 ENE 17 26 9 14 - - 0.0
15/03:30pm 23.9 22.5 12.2 48 6.7 ENE 11 15 6 8 - - 0.0
15/03:00pm 25.0 23.8 9.7 38 8.5 S 6 11 3 6 - - 0.0
15/02:30pm 26.7 25.2 10.4 36 9.2 SSW 9 15 5 8 - - 0.0
15/02:00pm 25.8 24.8 10.4 38 8.7 SSW 6 13 3 7 - - 0.0
15/01:30pm 25.5 24.7 11.7 42 7.9 S 7 13 4 7 - - 0.0
15/01:00pm 24.4 23.2 11.7 45 7.2 SSW 9 15 5 8 - - 0.0
15/12:30pm 24.3 23.1 12.9 49 6.6 SSW 11 19 6 10 - - 0.0
15/12:00pm 24.0 22.7 12.6 49 6.6 SSW 11 17 6 9 - - 0.0
15/11:30am 22.9 21.9 12.2 51 6.1 S 9 15 5 8 - - 0.0
15/11:00am 22.4 21.4 12.4 53 5.7 SSW 9 15 5 8 - - 0.0
15/10:30am 21.6 21.1 12.5 56 5.2 S 7 13 4 7 - - 0.0
15/10:00am 20.2 19.6 12.4 61 4.4 S 7 13 4 7 - - 0.0
15/09:30am 18.8 18.2 12.3 66 3.6 S 7 13 4 7 - - 0.0
15/09:00am 18.6 18.3 12.6 68 3.4 SSE 6 11 3 6 - - 0.0
15/08:30am 17.0 16.6 12.3 74 2.6 E 6 9 3 5 - - 0.0
15/08:00am 17.1 16.5 12.2 73 2.7 SE 7 19 4 10 - - 0.0
15/07:30am 15.9 14.7 11.7 76 2.3 SSE 9 13 5 7 - - 0.0
15/07:00am 15.5 14.3 12.8 84 1.5 SSW 11 15 6 8 - - 0.0
15/06:30am 15.4 14.9 12.7 84 1.5 S 7 11 4 6 - - 0.0
15/06:00am 14.8 14.7 13.2 90 0.9 S 6 11 3 6 - - 0.0
15/05:30am 14.5 14.2 13.4 93 0.6 SSW 7 11 4 6 - - 0.0
15/05:00am 14.8 14.7 13.2 90 0.9 SSW 6 11 3 6 - - 0.0
15/04:30am 15.1 14.2 12.6 85 1.4 SSE 9 13 5 7 - - 0.0
15/04:00am 15.1 14.9 13.0 87 1.2 S 6 9 3 5 - - 0.0
15/03:30am 15.1 14.7 13.1 88 1.1 SSW 7 11 4 6 - - 0.0
15/03:00am 15.2 15.0 13.1 87 1.2 SSE 6 9 3 5 - - 0.0
15/02:30am 15.3 14.6 13.3 88 1.1 SSW 9 11 5 6 - - 0.0
15/02:00am 15.6 15.1 13.8 89 1.0 SW 9 13 5 7 - - 0.0
15/01:30am 16.4 17.6 13.7 84 1.5 CALM 0 6 0 3 - - 0.0
15/01:00am 16.3 17.5 13.8 85 1.4 CALM 0 0 0 0 - - 0.0
15/12:30am 16.5 16.4 14.0 85 1.4 SW 7 11 4 6 - - 0.0
15/12:00am 17.6 17.9 14.5 82 1.8 S 6 7 3 4 - - 0.0
 
Date/Time
EST
Temp
°C
App
Temp
°C
Dew
Point
°C
Rel
Hum
%
Delta-T
°C
Wind Press
QNH
hPa
Press
MSL
hPa
Rain since
9am
mm
Dir  Spd
km/h
Gust
km/h
Spd
kts
Gust
kts
14/11:30pm 17.6 16.5 13.1 75 2.5 E 11 13 6 7 - - 0.0
14/11:00pm 17.9 16.8 13.0 73 2.8 E 11 15 6 8 - - 0.0
14/10:30pm 18.2 17.0 12.9 71 3.0 E 11 17 6 9 - - 0.0
14/10:00pm 18.6 17.1 13.0 70 3.2 E 13 22 7 12 - - 0.0
14/09:30pm 18.8 16.2 13.2 70 3.2 ENE 19 24 10 13 - - 0.0
14/09:00pm 18.6 16.9 13.7 73 2.8 ENE 15 22 8 12 - - 0.0
14/08:30pm 18.9 17.4 14.2 74 2.7 ENE 15 20 8 11 - - 0.0
14/08:00pm 19.1 17.3 14.4 74 2.7 ENE 17 24 9 13 - - 0.0
14/07:30pm 19.2 16.7 14.0 72 3.0 ENE 20 32 11 17 - - 0.0
14/07:00pm 19.3 16.7 13.9 71 3.1 ENE 20 33 11 18 - - 0.0
14/06:30pm 19.5 16.3 13.2 67 3.6 ENE 22 32 12 17 - - 0.0
14/06:00pm 19.9 17.0 12.9 64 4.0 ENE 20 33 11 18 - - 0.0
14/05:30pm 20.6 17.4 13.1 62 4.3 ENE 22 33 12 18 - - 0.0
14/05:00pm 21.4 18.0 12.5 57 5.1 ENE 22 32 12 17 - - 0.0
14/04:30pm 22.3 18.7 12.0 52 5.8 ENE 22 32 12 17 - - 0.0
14/04:00pm 23.1 19.1 10.5 45 7.0 ENE 22 30 12 16 - - 0.0
14/03:30pm 23.7 19.8 9.3 40 7.9 ENE 20 30 11 16 - - 0.0
14/03:00pm 24.5 21.4 7.2 33 9.1 E 13 24 7 13 - - 0.0
14/02:30pm 24.3 21.1 7.0 33 9.1 ENE 13 19 7 10 - - 0.0
14/02:00pm 25.2 23.1 5.9 29 10.0 SSW 6 13 3 7 - - 0.0
14/01:30pm 24.5 21.8 5.8 30 9.6 SSW 9 17 5 9 - - 0.0
14/01:00pm 24.0 21.9 5.8 31 9.3 N 6 15 3 8 - - 0.0
14/12:30pm 24.1 22.2 6.8 33 9.0 ESE 6 13 3 7 - - 0.0
14/12:00pm 22.9 20.4 4.9 31 9.0 SSW 7 13 4 7 - - 0.0
14/11:30am 21.1 17.2 0.9 26 9.2 S 11 15 6 8 - - 0.0
14/11:00am 21.3 17.6 -0.1 24 9.6 S 9 17 5 9 - - 0.0
14/10:30am 19.9 15.5 -2.4 22 9.5 S 11 17 6 9 - - 0.0
14/10:00am 19.1 14.5 -1.4 25 8.8 SSE 13 19 7 10 - - 0.0
14/09:30am 18.2 13.7 -3.2 23 8.8 SSE 11 17 6 9 - - 0.0
14/09:00am 16.4 12.5 -1.7 29 7.5 SSE 9 15 5 8 - - 0.0
14/08:30am 14.9 12.4 1.8 41 5.8 S 4 7 2 4 - - 0.0
14/08:00am 14.3 11.0 -0.2 37 6.1 SSW 7 13 4 7 - - 0.0
14/07:30am 14.1 11.4 3.8 50 4.7 SSE 7 11 4 6 - - 0.0
14/07:00am 14.6 13.1 3.1 46 5.2 CALM 0 0 0 0 - - 0.0
14/06:30am 14.3 11.3 4.0 50 4.8 S 9 13 5 7 - - 0.0
14/06:00am 14.9 10.3 1.4 40 5.9 SSE 15 20 8 11 - - 0.0
14/05:30am 14.3 11.0 6.2 58 3.9 SSE 13 17 7 9 - - 0.0
14/05:00am 14.2 12.7 9.0 71 2.7 S 7 13 4 7 - - 0.0
14/04:30am 13.8 12.6 9.5 75 2.2 S 6 7 3 4 - - 0.0
14/04:00am 15.0 13.0 8.7 66 3.2 S 9 15 5 8 - - 0.0
14/03:30am 15.1 13.5 10.1 72 2.6 S 9 13 5 7 - - 0.0
14/03:00am 14.9 13.6 11.1 78 2.0 SSW 9 13 5 7 - - 0.0
14/02:30am 14.7 13.7 11.1 79 1.9 SSW 7 9 4 5 - - 0.0
14/02:00am 15.6 13.6 11.6 77 2.2 SSW 13 19 7 10 - - 0.0
14/01:30am 15.9 15.0 11.5 75 2.4 SSE 7 9 4 5 - - 0.0
14/01:00am 15.8 15.3 12.0 78 2.1 SE 6 9 3 5 - - 0.0
14/12:30am 15.8 15.4 12.5 81 1.8 ESE 6 7 3 4 - - 0.0
14/12:00am 16.1 15.6 12.8 81 1.8 SE 7 9 4 5 - - 0.0
 
Date/Time
EST
Temp
°C
App
Temp
°C
Dew
Point
°C
Rel
Hum
%
Delta-T
°C
Wind Press
QNH
hPa
Press
MSL
hPa
Rain since
9am
mm
Dir  Spd
km/h
Gust
km/h
Spd
kts
Gust
kts
13/11:30pm 16.5 15.7 11.0 70 3.0 ESE 6 7 3 4 - - 0.0
13/11:00pm 17.5 16.8 11.3 67 3.4 NE 6 7 3 4 - - 0.0
13/10:30pm 18.0 17.1 11.3 65 3.7 NE 7 7 4 4 - - 0.0
13/10:00pm 18.6 18.4 11.9 65 3.7 NNE 4 6 2 3 - - 0.0
13/09:30pm 18.6 17.5 12.1 66 3.6 NNE 9 11 5 6 - - 0.0
13/09:00pm 18.5 16.5 11.6 64 3.8 NE 13 17 7 9 - - 0.0
13/08:30pm 18.8 15.9 11.1 61 4.2 NE 17 24 9 13 - - 0.0
13/08:00pm 18.9 16.4 11.0 60 4.3 NE 15 20 8 11 - - 0.0

Other Formats:

Comma delimited format used in spreadsheet applications
http://www.bom.gov.au/fwo/IDQ60801/IDQ60801.94272.axf

JavaScript Object Notation format (JSON) in row-major order
http://www.bom.gov.au/fwo/IDQ60801/IDQ60801.94272.json